Time;durP1;ratioP1;P1;durP2;ratioP2;P2;SDS_P1;SDS_P2;PMS_P1;PMS_P2;Temp;Humidity;BMP_temperature;BMP_pressure;BME280_temperature;BME280_humidity;BME280_pressure;Samples;Min_cycle;Max_cycle;Signal;HPM_P1;HPM_P2
2022/06/21 00:02:10;;;;;;;0.05;0.05;;;;;;;18.92;46.67;101077.22;7366510;19;20010;-63
2022/06/21 00:04:36;;;;;;;0.00;0.00;;;;;;;18.88;47.71;101081.81;7364281;19;20010;-63
2022/06/21 00:07:04;;;;;;;0.00;0.00;;;;;;;18.90;47.42;101090.50;7366639;19;20040;-61
2022/06/21 00:09:29;;;;;;;0.00;0.00;;;;;;;18.85;47.48;101087.22;7364331;19;20006;-63
2022/06/21 00:11:54;;;;;;;0.00;0.00;;;;;;;18.81;47.76;101090.16;7367925;19;21669;-61
2022/06/21 00:14:20;;;;;;;0.00;0.00;;;;;;;18.77;47.64;101093.88;7362016;19;20013;-62
2022/06/21 00:16:45;;;;;;;0.10;0.10;;;;;;;18.62;47.22;101076.94;7364103;19;20019;-63
2022/06/21 00:19:18;;;;;;;0.00;0.00;;;;;;;18.70;46.89;101093.31;7363751;19;20011;-63
2022/06/21 00:21:43;;;;;;;0.00;0.00;;;;;;;18.62;47.62;101087.53;7364792;19;20537;-63
2022/06/21 00:24:10;;;;;;;0.05;0.05;;;;;;;18.62;47.48;101096.31;7365145;19;20011;-62
2022/06/21 00:26:36;;;;;;;0.00;0.00;;;;;;;18.50;47.26;101080.19;7364871;19;20119;-63
2022/06/21 00:29:02;;;;;;;0.00;0.00;;;;;;;18.57;48.02;101092.19;7365933;19;20030;-62
2022/06/21 00:31:31;;;;;;;0.00;0.00;;;;;;;18.55;47.30;101088.75;7363509;19;20457;-60
2022/06/21 00:33:58;;;;;;;0.00;0.00;;;;;;;18.52;47.95;101083.63;7366087;19;20354;-61
2022/06/21 00:36:31;;;;;;;0.00;0.00;;;;;;;18.47;48.17;101094.44;7362707;19;20041;-62
2022/06/21 00:38:59;;;;;;;0.00;0.00;;;;;;;18.34;47.74;101080.94;7365029;19;20027;-60
2022/06/21 00:41:40;;;;;;;0.08;0.08;;;;;;;18.36;46.67;101084.38;7362059;19;20036;-63
2022/06/21 00:44:11;;;;;;;0.00;0.00;;;;;;;18.33;47.86;101063.38;7364276;19;20014;-63
2022/06/21 00:46:47;;;;;;;0.00;0.00;;;;;;;18.32;46.92;101071.38;7362482;19;20090;-63
2022/06/21 00:49:26;;;;;;;0.00;0.00;;;;;;;18.24;48.64;101073.53;7362555;19;20090;-64
2022/06/21 00:52:17;;;;;;;0.00;0.00;;;;;;;18.16;47.21;101068.63;7366330;19;20014;-63
2022/06/21 00:54:49;;;;;;;0.00;0.00;;;;;;;18.15;47.76;101067.78;7260756;19;2004568;-62
2022/06/21 00:57:18;;;;;;;0.00;0.00;;;;;;;18.12;48.81;101060.00;7365897;19;20018;-63
2022/06/21 00:59:49;;;;;;;0.00;0.00;;;;;;;18.08;48.34;101053.13;7363319;19;20022;-61
2022/06/21 01:02:20;;;;;;;0.00;0.00;;;;;;;18.03;49.71;101044.56;7363696;19;21051;-63
2022/06/21 01:04:50;;;;;;;0.00;0.00;;;;;;;18.02;48.40;101048.16;7365020;19;20074;-63
2022/06/21 01:07:16;;;;;;;0.00;0.00;;;;;;;17.98;49.16;101035.16;7364331;19;20014;-61
2022/06/21 01:09:58;;;;;;;0.00;0.00;;;;;;;17.96;48.05;101034.38;7365309;19;20047;-63
2022/06/21 01:12:36;;;;;;;0.00;0.00;;;;;;;17.92;48.79;101040.75;7361546;19;20014;-61
2022/06/21 01:15:08;;;;;;;0.00;0.00;;;;;;;17.86;49.62;101040.09;7363346;19;20023;-63
2022/06/21 01:17:35;;;;;;;0.00;0.00;;;;;;;17.80;49.99;101035.13;7363905;19;20485;-62
2022/06/21 01:20:08;;;;;;;0.08;0.08;;;;;;;17.77;50.27;101042.31;7364693;19;20030;-62
2022/06/21 01:22:42;;;;;;;0.00;0.00;;;;;;;17.72;50.23;101044.28;7362084;19;20551;-62
2022/06/21 01:25:40;;;;;;;0.00;0.00;;;;;;;17.70;47.61;101039.09;7361302;19;20070;-63
2022/06/21 01:28:08;;;;;;;0.00;0.00;;;;;;;17.66;50.42;101037.50;7260031;19;2004039;-61
2022/06/21 01:30:34;;;;;;;0.00;0.00;;;;;;;17.60;49.89;101029.88;7364969;19;20049;-61
2022/06/21 01:33:01;;;;;;;0.00;0.00;;;;;;;17.55;50.62;101038.03;7362969;19;20346;-62
2022/06/21 01:35:48;;;;;;;0.00;0.00;;;;;;;17.50;48.25;101041.81;7361540;19;20094;-62
2022/06/21 01:38:21;;;;;;;0.00;0.00;;;;;;;17.43;49.77;101032.44;7364440;19;20042;-62
2022/06/21 01:40:51;;;;;;;0.00;0.00;;;;;;;17.38;50.52;101035.28;7361469;19;20013;-62
2022/06/21 01:43:25;;;;;;;0.05;0.05;;;;;;;17.31;49.78;101026.78;7364578;19;20014;-62
2022/06/21 01:46:01;;;;;;;0.00;0.00;;;;;;;17.25;49.98;101029.72;7362514;19;20461;-62
2022/06/21 01:48:34;;;;;;;0.00;0.00;;;;;;;17.17;50.31;101031.81;7363171;19;20003;-63
2022/06/21 01:51:04;;;;;;;0.05;0.05;;;;;;;17.11;51.13;101032.97;7360754;19;21240;-62
2022/06/21 01:53:31;;;;;;;0.00;0.00;;;;;;;17.04;51.49;101030.69;7361446;19;20025;-62
2022/06/21 01:56:01;;;;;;;0.00;0.00;;;;;;;16.97;51.86;101031.84;7363698;19;20030;-60
2022/06/21 01:58:31;;;;;;;0.00;0.00;;;;;;;16.90;51.85;101025.16;7355215;19;20041;-62
2022/06/21 02:01:12;;;;;;;0.00;0.00;;;;;;;16.81;50.58;101019.34;7361685;19;20015;-63
2022/06/21 02:03:40;;;;;;;0.08;0.08;;;;;;;16.66;52.04;101014.69;7365180;19;20006;-63
2022/06/21 02:06:11;;;;;;;0.00;0.00;;;;;;;16.68;51.01;101020.78;7367173;19;20031;-62
2022/06/21 02:09:02;;;;;;;0.00;0.00;;;;;;;16.64;49.76;101024.47;7366373;19;20463;-62
2022/06/21 02:11:38;;;;;;;0.00;0.00;;;;;;;16.60;51.52;101025.50;7364354;19;20017;-63
2022/06/21 02:14:30;;;;;;;0.00;0.00;;;;;;;16.55;52.04;101019.56;7367938;19;20017;-63
2022/06/21 02:17:04;;;;;;;0.00;0.00;;;;;;;16.50;52.03;101011.00;7265734;19;2004667;-62
2022/06/21 02:19:38;;;;;;;0.00;0.00;;;;;;;16.45;51.57;101015.63;7366456;19;20073;-63
2022/06/21 02:22:05;;;;;;;0.00;0.00;;;;;;;16.40;53.09;101010.53;7366163;19;20018;-61
2022/06/21 02:24:31;;;;;;;0.00;0.00;;;;;;;16.35;53.35;101016.00;7365260;19;20034;-62
2022/06/21 02:26:59;;;;;;;0.00;0.00;;;;;;;16.30;53.27;101007.41;7366825;19;20010;-61
2022/06/21 02:29:25;;;;;;;0.00;0.00;;;;;;;16.25;54.28;101008.53;7365008;19;20454;-63
2022/06/21 02:31:51;;;;;;;0.00;0.00;;;;;;;16.21;54.45;101007.78;7365960;19;20014;-62
2022/06/21 02:34:28;;;;;;;0.00;0.00;;;;;;;16.18;53.26;101002.66;7367618;19;20017;-62
2022/06/21 02:36:57;;;;;;;0.00;0.00;;;;;;;16.13;53.99;100999.38;7357938;19;20145;-61
2022/06/21 02:39:25;;;;;;;0.00;0.00;;;;;;;15.94;54.71;100966.78;7367990;19;20520;-62
2022/06/21 02:41:59;;;;;;;0.00;0.00;;;;;;;16.05;53.87;100986.50;7366533;19;20014;-60
2022/06/21 02:44:34;;;;;;;0.00;0.00;;;;;;;16.01;53.96;100992.78;7363336;19;20082;-62
2022/06/21 02:47:08;;;;;;;0.00;0.00;;;;;;;15.85;54.23;100969.78;7364954;19;20014;-62
2022/06/21 02:49:42;;;;;;;0.03;0.03;;;;;;;15.94;54.45;101001.03;7366829;19;20713;-61
2022/06/21 02:52:39;;;;;;;0.00;0.00;;;;;;;15.93;53.70;101007.22;7364417;19;20118;-63
2022/06/21 02:55:30;;;;;;;0.00;0.00;;;;;;;15.89;51.65;101005.63;7263937;19;2004277;-61
2022/06/21 02:58:07;;;;;;;0.00;0.00;;;;;;;15.83;53.82;100994.41;7368082;19;20017;-62
2022/06/21 03:00:33;;;;;;;0.00;0.00;;;;;;;15.67;56.23;100985.41;7366745;19;20010;-62
2022/06/21 03:03:01;;;;;;;0.00;0.00;;;;;;;15.59;54.61;100969.00;7364238;19;20110;-62
2022/06/21 03:05:28;;;;;;;0.00;0.00;;;;;;;15.68;55.80;100986.25;7357476;19;20908;-62
2022/06/21 03:08:02;;;;;;;0.00;0.00;;;;;;;15.62;55.36;100979.44;7366816;19;20369;-62
2022/06/21 03:10:33;;;;;;;0.00;0.00;;;;;;;15.60;56.24;100983.88;7366690;19;20011;-62
2022/06/21 03:13:03;;;;;;;0.00;0.00;;;;;;;15.56;55.74;100982.28;7363306;19;20719;-61
2022/06/21 03:15:29;;;;;;;0.10;0.10;;;;;;;15.53;57.01;100988.53;7367150;19;20019;-63
2022/06/21 03:18:02;;;;;;;0.00;0.00;;;;;;;15.51;56.18;100984.22;7368274;19;20102;-65
2022/06/21 03:20:30;;;;;;;0.00;0.00;;;;;;;15.51;56.89;100995.66;7358081;19;20830;-62
2022/06/21 03:22:56;;;;;;;0.00;0.00;;;;;;;15.50;57.52;100990.41;7366845;19;20021;-63
2022/06/21 03:25:37;;;;;;;0.00;0.00;;;;;;;15.50;55.85;100988.63;7367782;19;20082;-64
2022/06/21 03:28:03;;;;;;;0.00;0.00;;;;;;;15.47;57.98;100985.28;7368113;19;20014;-62
2022/06/21 03:30:33;;;;;;;0.00;0.00;;;;;;;15.51;57.67;100989.50;7366781;19;20018;-62
2022/06/21 03:33:01;;;;;;;0.00;0.00;;;;;;;15.50;57.86;100988.63;7366872;19;20049;-60
2022/06/21 03:35:31;;;;;;;0.00;0.00;;;;;;;15.51;57.46;100992.13;7367281;19;20010;-62
2022/06/21 03:37:56;;;;;;;0.00;0.00;;;;;;;15.40;58.30;100968.00;7363983;19;20022;-62
2022/06/21 03:43:17;;;;;;;0.00;0.00;;;;;;;15.51;57.48;101000.03;7363234;19;20668;-62
2022/06/21 03:45:46;;;;;;;0.00;0.00;;;;;;;15.52;59.24;101001.75;7368190;19;20421;-62
2022/06/21 03:48:43;;;;;;;0.00;0.00;;;;;;;15.48;56.38;100984.38;7363505;19;20023;-60
2022/06/21 03:51:14;;;;;;;0.00;0.00;;;;;;;15.52;58.52;100992.09;7264177;19;2004322;-61
2022/06/21 03:53:50;;;;;;;0.00;0.00;;;;;;;15.56;57.71;100992.81;7366056;19;20017;-61
2022/06/21 03:56:24;;;;;;;0.00;0.00;;;;;;;15.56;58.75;100996.31;7366129;19;20752;-63
2022/06/21 03:59:19;;;;;;;0.00;0.00;;;;;;;15.50;55.72;100969.38;7365750;19;20017;-62
2022/06/21 04:01:50;;;;;;;0.00;0.00;;;;;;;15.57;58.86;100984.00;7262928;19;2004276;-61
2022/06/21 04:04:26;;;;;;;0.00;0.00;;;;;;;15.58;58.43;100996.25;7366728;19;20006;-61
2022/06/21 04:07:10;;;;;;;0.00;0.00;;;;;;;15.57;58.00;100978.75;7360381;19;20010;-62
2022/06/21 04:09:36;;;;;;;0.00;0.00;;;;;;;15.55;60.65;100972.66;7366964;19;20018;-63
2022/06/21 04:12:10;;;;;;;0.00;0.00;;;;;;;15.57;59.49;100968.22;7365400;19;20003;-62
2022/06/21 04:14:46;;;;;;;0.00;0.00;;;;;;;15.59;58.83;100971.63;7365320;19;20386;-62
2022/06/21 04:17:29;;;;;;;0.10;0.10;;;;;;;15.58;58.07;100969.94;7364704;19;20465;-62
2022/06/21 04:20:01;;;;;;;0.00;0.00;;;;;;;15.58;60.12;100976.06;7367013;19;20010;-62
2022/06/21 04:23:12;;;;;;;0.00;0.00;;;;;;;15.61;57.02;100975.06;7364888;19;20055;-63
2022/06/21 04:25:46;;;;;;;0.00;0.00;;;;;;;15.60;60.33;100973.34;7261468;19;2004435;-62
2022/06/21 04:28:15;;;;;;;0.00;0.00;;;;;;;15.61;61.71;100971.56;7367188;19;20034;-63
2022/06/21 04:31:06;;;;;;;0.05;0.05;;;;;;;15.63;57.09;100977.66;7363110;19;20006;-62
2022/06/21 04:33:37;;;;;;;0.00;0.00;;;;;;;15.61;61.18;100969.78;7364306;19;20070;-62
2022/06/21 04:36:27;;;;;;;0.00;0.00;;;;;;;15.63;60.95;100967.13;7363960;19;20123;-61
2022/06/21 04:39:05;;;;;;;0.00;0.00;;;;;;;15.65;60.29;100971.44;7365577;19;20025;-61
2022/06/21 04:41:36;;;;;;;0.00;0.00;;;;;;;15.66;61.36;100970.53;7363200;19;20030;-64
2022/06/21 04:44:46;;;;;;;0.00;0.00;;;;;;;15.68;58.90;100966.06;7367261;19;20041;-61
2022/06/21 04:48:07;;;;;;;0.00;0.00;;;;;;;15.68;58.46;100960.78;7263995;19;2004199;-62
2022/06/21 04:50:44;;;;;;;0.00;0.00;;;;;;;15.68;62.23;100962.56;7261951;19;2004443;-61
2022/06/21 04:53:48;;;;;;;0.00;0.00;;;;;;;15.73;58.97;100963.25;7366067;19;20978;-63
2022/06/21 04:56:59;;;;;;;0.00;0.00;;;;;;;15.77;57.43;100959.56;7263633;19;2004222;-63
2022/06/21 04:59:29;;;;;;;0.00;0.00;;;;;;;15.74;60.22;100939.47;7261507;19;2004227;-62
2022/06/21 05:01:55;;;;;;;0.00;0.00;;;;;;;15.77;61.26;100938.50;7364949;19;20465;-64
2022/06/21 05:04:39;;;;;;;0.10;0.10;;;;;;;15.79;59.21;100936.66;7364684;19;20021;-64
2022/06/21 05:07:12;;;;;;;0.00;0.00;;;;;;;15.78;61.79;100940.22;7364900;19;20662;-63
2022/06/21 05:09:41;;;;;;;0.00;0.00;;;;;;;15.78;62.43;100935.81;7364803;19;20013;-63
2022/06/21 05:12:23;;;;;;;0.00;0.00;;;;;;;15.72;60.25;100922.91;7365078;19;20497;-63
2022/06/21 05:14:58;;;;;;;0.00;0.00;;;;;;;15.85;62.13;100936.41;7364596;19;20021;-64
2022/06/21 05:17:24;;;;;;;0.05;0.05;;;;;;;15.87;62.40;100944.25;7365048;19;20003;-63
2022/06/21 05:19:56;;;;;;;0.00;0.00;;;;;;;15.91;62.36;100935.28;7366267;19;20995;-64
2022/06/21 05:22:30;;;;;;;0.00;0.00;;;;;;;15.97;61.31;100940.34;7362482;19;20030;-61
2022/06/21 05:24:58;;;;;;;0.00;0.00;;;;;;;15.99;62.35;100933.22;7364195;19;20134;-63
2022/06/21 05:27:30;;;;;;;0.00;0.00;;;;;;;16.04;62.00;100936.50;7362941;19;20425;-63
2022/06/21 05:30:06;;;;;;;0.00;0.00;;;;;;;16.06;61.21;100939.94;7364484;19;20027;-64
2022/06/21 05:32:38;;;;;;;0.10;0.10;;;;;;;16.12;61.73;100939.69;7363534;19;20115;-64
2022/06/21 05:35:13;;;;;;;0.00;0.00;;;;;;;16.16;61.19;100945.66;7363600;19;20017;-63
2022/06/21 05:38:02;;;;;;;0.00;0.00;;;;;;;16.10;59.13;100928.34;7361617;19;20022;-64
2022/06/21 05:40:33;;;;;;;0.00;0.00;;;;;;;16.19;61.43;100935.88;7363965;19;20021;-60
2022/06/21 05:42:59;;;;;;;0.00;0.00;;;;;;;16.21;61.83;100934.00;7363919;19;20014;-64
2022/06/21 05:45:30;;;;;;;0.00;0.00;;;;;;;16.25;61.78;100947.91;7365832;19;20030;-64
2022/06/21 05:48:00;;;;;;;0.00;0.00;;;;;;;16.27;61.84;100939.06;7364567;19;20011;-64
2022/06/21 05:50:31;;;;;;;0.00;0.00;;;;;;;16.29;61.52;100941.59;7362981;19;20915;-64
2022/06/21 05:53:09;;;;;;;0.08;0.08;;;;;;;16.32;60.69;100941.47;7364022;19;20017;-63
2022/06/21 05:55:40;;;;;;;0.00;0.00;;;;;;;16.32;63.29;100944.97;7358995;19;20034;-62
2022/06/21 05:58:14;;;;;;;0.00;0.00;;;;;;;16.35;62.93;100946.63;7356203;19;20623;-62
2022/06/21 06:00:40;;;;;;;0.00;0.00;;;;;;;16.33;63.65;100954.59;7360987;19;20370;-65
2022/06/21 06:03:14;;;;;;;0.00;0.00;;;;;;;16.34;62.39;100951.03;7356799;19;20010;-65
2022/06/21 06:05:40;;;;;;;0.00;0.00;;;;;;;16.35;63.87;100958.00;7359107;19;20027;-62
2022/06/21 06:08:12;;;;;;;0.00;0.00;;;;;;;16.37;63.24;100954.44;7359620;19;20010;-62
2022/06/21 06:10:41;;;;;;;0.00;0.00;;;;;;;16.35;63.10;100963.28;7357809;19;20699;-63
2022/06/21 06:13:22;;;;;;;0.00;0.00;;;;;;;16.33;61.35;100953.75;7359220;19;20014;-64
2022/06/21 06:15:53;;;;;;;0.00;0.00;;;;;;;16.33;62.86;100951.97;7360591;19;20014;-63
2022/06/21 06:18:35;;;;;;;0.00;0.00;;;;;;;16.34;63.23;100956.31;7361824;19;20019;-64
2022/06/21 06:21:13;;;;;;;0.00;0.00;;;;;;;16.26;62.75;100939.94;7356228;19;20006;-64
2022/06/21 06:23:40;;;;;;;;;;;;;;;16.38;57.38;100951.75;7362028;19;20010;-64
2022/06/21 06:26:19;;;;;;;0.00;0.00;;;;;;;16.39;62.19;100952.63;7359159;19;20437;-64
2022/06/21 06:29:11;;;;;;;0.00;0.00;;;;;;;16.41;62.00;100950.75;7362153;19;20386;-64
2022/06/21 06:31:47;;;;;;;0.00;0.00;;;;;;;16.44;62.75;100945.38;7257289;19;2004573;-64
2022/06/21 06:34:18;;;;;;;0.00;0.00;;;;;;;16.46;63.80;100952.28;7359186;19;20103;-64
2022/06/21 06:36:48;;;;;;;0.00;0.00;;;;;;;16.50;63.76;100945.94;7359598;19;20031;-63
2022/06/21 06:39:35;;;;;;;0.00;0.00;;;;;;;16.50;62.57;100934.56;7354328;19;20704;-64
2022/06/21 06:42:24;;;;;;;0.00;0.00;;;;;;;16.64;63.67;100942.72;7353090;19;20074;-64
2022/06/21 06:44:53;;;;;;;0.00;0.00;;;;;;;16.71;64.00;100936.28;7354475;19;20014;-64
2022/06/21 06:47:25;;;;;;;0.00;0.00;;;;;;;16.79;63.14;100947.34;7355373;19;20644;-64
2022/06/21 06:50:14;;;;;;;0.00;0.00;;;;;;;16.84;61.39;100934.81;7366716;19;20356;-63
2022/06/21 06:52:47;;;;;;;0.05;0.05;;;;;;;16.92;63.65;100938.88;7358121;19;20082;-62
2022/06/21 06:55:23;;;;;;;0.00;0.00;;;;;;;16.96;62.41;100937.81;7368363;19;20075;-64
2022/06/21 06:58:28;;;;;;;0.00;0.00;;;;;;;17.01;60.25;100935.81;7366806;19;20089;-62
2022/06/21 07:00:59;;;;;;;0.00;0.00;;;;;;;17.04;62.62;100938.34;7264481;19;2004220;-63
2022/06/21 07:03:29;;;;;;;0.00;0.00;;;;;;;17.06;63.06;100941.75;7365053;19;20111;-63
2022/06/21 07:06:02;;;;;;;0.00;0.00;;;;;;;17.13;63.01;100940.53;7367320;19;20608;-64
2022/06/21 07:08:58;;;;;;;0.00;0.00;;;;;;;17.19;61.46;100940.25;7360661;19;20025;-62
2022/06/21 07:11:38;;;;;;;0.00;0.00;;;;;;;17.26;60.40;100936.41;7260111;19;2004636;-60
2022/06/21 07:14:13;;;;;;;0.00;0.00;;;;;;;17.25;63.18;100944.41;7361728;19;20014;-61
2022/06/21 07:16:40;;;;;;;0.00;0.00;;;;;;;17.30;62.88;100945.91;7366457;19;20112;-63
2022/06/21 07:19:09;;;;;;;0.00;0.00;;;;;;;17.32;62.76;100941.38;7368852;19;20019;-62
2022/06/21 07:21:36;;;;;;;0.00;0.00;;;;;;;17.31;62.78;100934.41;7365587;19;20031;-64
2022/06/21 07:24:02;;;;;;;0.00;0.00;;;;;;;17.41;62.78;100944.53;7365464;19;20014;-64
2022/06/21 07:26:33;;;;;;;0.00;0.00;;;;;;;17.47;62.50;100942.44;7366819;19;20590;-64
2022/06/21 07:28:58;;;;;;;0.00;0.00;;;;;;;17.50;63.24;100944.09;7367371;19;20014;-63
2022/06/21 07:31:37;;;;;;;0.00;0.00;;;;;;;17.60;61.03;100942.75;7367948;19;20016;-62
2022/06/21 07:34:14;;;;;;;0.00;0.00;;;;;;;17.66;61.42;100945.06;7365263;19;20025;-63
2022/06/21 07:36:49;;;;;;;0.00;0.00;;;;;;;17.73;62.05;100935.94;7361131;19;20473;-62
2022/06/21 07:39:46;;;;;;;0.00;0.00;;;;;;;17.77;62.73;100937.50;7363118;19;20014;-64
2022/06/21 07:42:19;;;;;;;0.00;0.00;;;;;;;17.85;62.50;100940.66;7261702;19;2004396;-63
2022/06/21 07:44:52;;;;;;;0.00;0.00;;;;;;;17.94;62.27;100922.63;7366635;19;20021;-62
2022/06/21 07:47:53;;;;;;;0.00;0.00;;;;;;;18.05;60.52;100920.31;7366102;19;20025;-63
2022/06/21 07:50:28;;;;;;;0.10;0.10;;;;;;;18.14;61.60;100919.81;7258909;19;2004434;-63
2022/06/21 07:53:00;;;;;;;0.00;0.00;;;;;;;18.22;61.71;100917.66;7366289;19;20041;-63
2022/06/21 07:55:34;;;;;;;0.03;0.03;;;;;;;18.31;61.32;100919.84;7367110;19;20010;-64
2022/06/21 07:58:07;;;;;;;0.00;0.00;;;;;;;18.40;61.19;100922.00;7366489;19;20017;-63
2022/06/21 08:09:21;;;;;;;0.00;0.00;;;;;;;18.78;58.68;100931.53;7267442;19;2004641;-64
2022/06/21 08:11:48;;;;;;;0.05;0.05;;;;;;;18.79;60.18;100928.81;7367437;19;20013;-64
2022/06/21 08:14:15;;;;;;;;;;;;;;;18.87;57.37;100918.69;7367438;19;20022;-64
2022/06/21 08:16:57;;;;;;;0.00;0.00;;;;;;;18.90;58.76;100926.44;7367275;19;19918;-63
2022/06/21 08:19:45;;;;;;;0.03;0.03;;;;;;;18.92;58.43;100924.56;7357521;19;20010;-62
2022/06/21 08:22:19;;;;;;;0.10;0.10;;;;;;;18.93;58.95;100921.00;7362376;19;20010;-63
2022/06/21 08:25:01;;;;;;;0.00;0.00;;;;;;;18.93;59.57;100918.34;7364825;19;20033;-64
2022/06/21 08:27:46;;;;;;;0.00;0.00;;;;;;;18.98;57.82;100922.53;7368309;19;20478;-63
2022/06/21 08:30:18;;;;;;;0.00;0.00;;;;;;;18.92;59.01;100935.16;7366789;19;20087;-64
2022/06/21 08:33:07;;;;;;;0.10;0.10;;;;;;;18.97;57.83;100931.41;7367120;19;20014;-64
2022/06/21 08:35:33;;;;;;;0.00;0.00;;;;;;;18.92;59.96;100932.53;7367434;19;20006;-63
2022/06/21 08:38:23;;;;;;;0.00;0.00;;;;;;;19.01;58.28;100927.66;7365162;19;22945;-63
2022/06/21 08:41:00;;;;;;;0.08;0.08;;;;;;;19.07;58.73;100933.47;7264178;19;2004564;-62
2022/06/21 08:44:08;;;;;;;0.00;0.00;;;;;;;19.16;58.45;100918.91;7367484;19;20481;-64
2022/06/21 08:46:53;;;;;;;0.00;0.00;;;;;;;19.33;58.03;100924.09;7264427;19;2004964;-61
2022/06/21 08:50:00;;;;;;;0.03;0.03;;;;;;;19.49;57.70;100928.53;7366962;19;20017;-61
2022/06/21 08:52:59;;;;;;;0.10;0.10;;;;;;;19.69;58.45;100925.66;7264571;19;2004166;-64
2022/06/21 08:55:27;;;;;;;0.00;0.00;;;;;;;19.88;58.36;100934.25;7264079;19;2004511;-61
2022/06/21 08:58:30;;;;;;;0.00;0.00;;;;;;;20.09;57.39;100928.66;7368163;19;20010;-62
2022/06/21 09:01:17;;;;;;;0.00;0.00;;;;;;;20.21;57.26;100923.47;7264470;19;2004264;-61
2022/06/21 09:03:50;;;;;;;;;;;;;;;20.39;55.69;100923.31;7367280;19;20017;-62
2022/06/21 09:06:23;;;;;;;0.00;0.00;;;;;;;20.38;56.72;100903.91;7364143;19;19948;-60
2022/06/21 09:09:07;;;;;;;0.00;0.00;;;;;;;20.56;55.85;100917.03;7368741;19;20014;-62
2022/06/21 09:11:49;;;;;;;0.10;0.10;;;;;;;20.43;55.46;100899.19;7361095;19;20010;-62
2022/06/21 09:14:18;;;;;;;0.05;0.05;;;;;;;20.51;56.81;100913.78;7366075;19;20027;-62
2022/06/21 09:17:10;;;;;;;0.03;0.03;;;;;;;20.55;55.94;100910.00;7365163;19;20010;-64
2022/06/21 09:20:09;;;;;;;0.10;0.10;;;;;;;20.49;55.85;100897.13;7362131;19;20010;-64
2022/06/21 09:22:53;;;;;;;0.00;0.00;;;;;;;20.54;56.22;100918.94;7260829;19;2004186;-62
2022/06/21 09:25:27;;;;;;;0.00;0.00;;;;;;;20.59;55.94;100917.69;7365865;19;20027;-60
2022/06/21 09:28:24;;;;;;;0.10;0.10;;;;;;;20.62;55.89;100928.09;7363080;19;20014;-60
2022/06/21 09:31:14;;;;;;;0.10;0.10;;;;;;;20.65;55.68;100927.94;7262013;19;2004613;-62
2022/06/21 09:33:48;;;;;;;0.00;0.00;;;;;;;20.72;56.05;100931.06;7365162;19;20007;-60
2022/06/21 09:36:33;;;;;;;0.00;0.00;;;;;;;20.78;55.27;100928.00;7359219;19;20077;-62
2022/06/21 09:39:05;;;;;;;0.10;0.10;;;;;;;20.93;55.93;100939.50;7361143;19;20013;-59
2022/06/21 09:41:30;;;;;;;0.00;0.00;;;;;;;21.02;56.35;100930.09;7362513;19;20624;-59
2022/06/21 09:44:01;;;;;;;0.10;0.10;;;;;;;21.27;55.75;100935.56;7363335;19;20010;-62
2022/06/21 09:46:44;;;;;;;0.10;0.10;;;;;;;21.45;55.40;100939.75;7362592;19;20009;-60
2022/06/21 09:49:34;;;;;;;0.08;0.08;;;;;;;21.67;55.22;100941.00;7361265;19;20018;-62
2022/06/21 09:52:13;;;;;;;0.10;0.10;;;;;;;21.81;54.60;100938.31;7360353;19;20029;-62
2022/06/21 09:54:46;;;;;;;0.10;0.10;;;;;;;21.96;54.39;100924.00;7362537;19;20478;-62
2022/06/21 09:57:30;;;;;;;0.08;0.08;;;;;;;22.29;54.02;100925.34;7360737;19;20015;-62
2022/06/21 10:00:18;;;;;;;0.10;0.10;;;;;;;22.54;54.16;100914.72;7361071;19;20007;-61
2022/06/21 10:03:03;;;;;;;0.10;0.10;;;;;;;22.78;53.71;100911.31;7361659;19;20409;-62
2022/06/21 10:05:48;;;;;;;0.10;0.10;;;;;;;23.19;52.99;100920.88;7366067;19;20050;-61
2022/06/21 10:08:35;;;;;;;0.10;0.10;;;;;;;23.48;52.61;100922.28;7362248;19;20102;-61
2022/06/21 10:11:30;;;;;;;0.00;0.00;;;;;;;23.72;51.37;100918.78;7362108;19;20832;-60
2022/06/21 10:14:29;;;;;;;0.00;0.00;;;;;;;23.89;51.07;100914.88;7263775;19;2004385;-62
2022/06/21 10:17:13;;;;;;;0.10;0.10;;;;;;;24.02;50.65;100921.81;7263963;19;2004493;-57
2022/06/21 10:20:23;;;;;;;0.10;0.10;;;;;;;24.07;49.93;100924.97;7360707;19;20114;-62
2022/06/21 10:23:34;;;;;;;0.10;0.10;;;;;;;24.00;49.53;100926.44;7261372;19;2004478;-63
2022/06/21 10:26:02;;;;;;;0.00;0.00;;;;;;;23.92;49.95;100923.47;7262878;19;2004324;-61
2022/06/21 10:28:38;;;;;;;0.10;0.10;;;;;;;23.90;49.77;100920.09;7367462;19;21597;-60
2022/06/21 10:31:16;;;;;;;0.00;0.00;;;;;;;23.83;49.45;100924.19;7366641;19;20033;-61
2022/06/21 10:34:00;;;;;;;0.08;0.08;;;;;;;23.83;49.71;100923.34;7368874;19;20440;-62
2022/06/21 10:36:43;;;;;;;0.05;0.05;;;;;;;23.79;49.91;100922.72;7370115;19;20010;-61
2022/06/21 10:40:10;;;;;;;0.10;0.10;;;;;;;23.72;50.24;100897.44;7368587;19;20815;-62
2022/06/21 10:43:12;;;;;;;0.10;0.10;;;;;;;23.97;50.40;100918.63;7159392;19;2005296;-60
2022/06/21 10:45:49;;;;;;;0.10;0.10;;;;;;;24.06;50.25;100907.28;7267365;19;2004633;-58
2022/06/21 10:48:36;;;;;;;0.10;0.10;;;;;;;24.26;50.34;100918.25;7369641;19;20019;-62
2022/06/21 10:51:17;;;;;;;0.10;0.10;;;;;;;24.42;48.93;100918.81;7368176;19;20473;-61
2022/06/21 10:54:05;;;;;;;0.10;0.10;;;;;;;24.72;49.18;100914.72;7370582;19;20015;-62
2022/06/21 10:57:11;;;;;;;0.03;0.03;;;;;;;24.88;49.17;100915.19;7369886;19;20101;-62
2022/06/21 11:02:50;;;;;;;0.10;0.10;;;;;;;25.24;48.55;100915.94;7266855;19;2004365;-61
2022/06/21 11:05:34;;;;;;;0.10;0.10;;;;;;;25.45;47.81;100916.88;7369932;19;20154;-62
2022/06/21 11:08:37;;;;;;;0.00;0.00;;;;;;;25.58;47.98;100925.56;7368624;19;20078;-62
2022/06/21 11:11:19;;;;;;;0.10;0.10;;;;;;;25.67;47.30;100920.47;7263828;19;2004488;-62
2022/06/21 11:13:56;;;;;;;0.03;0.03;;;;;;;25.70;47.42;100915.72;7369003;19;20030;-62
2022/06/21 11:16:50;;;;;;;0.10;0.10;;;;;;;25.76;47.08;100922.41;7367334;19;20074;-62
2022/06/21 11:19:21;;;;;;;0.10;0.10;;;;;;;25.77;47.13;100918.75;7265776;19;2004307;-61
2022/06/21 11:22:24;;;;;;;0.00;0.00;;;;;;;25.87;47.02;100925.03;7369247;19;20117;-62
2022/06/21 11:25:11;;;;;;;0.08;0.08;;;;;;;25.92;46.32;100917.47;7265746;19;2004539;-62
2022/06/21 11:27:40;;;;;;;0.05;0.05;;;;;;;25.99;46.48;100913.28;7369983;19;20082;-61
2022/06/21 11:30:14;;;;;;;0.10;0.10;;;;;;;26.08;46.06;100917.88;7369967;19;20832;-62
2022/06/21 11:33:05;;;;;;;0.08;0.08;;;;;;;26.22;46.61;100915.84;7367057;19;20710;-61
2022/06/21 11:35:42;;;;;;;0.03;0.03;;;;;;;26.36;46.30;100904.81;7368265;19;20054;-60
2022/06/21 11:38:26;;;;;;;0.10;0.10;;;;;;;26.57;46.84;100911.03;7369582;19;20038;-62
2022/06/21 11:41:09;;;;;;;0.10;0.10;;;;;;;26.84;46.23;100920.31;7365839;19;20018;-59
2022/06/21 11:43:53;;;;;;;0.10;0.10;;;;;;;27.14;46.46;100912.28;7368438;19;20018;-60
2022/06/21 11:46:35;;;;;;;0.00;0.00;;;;;;;27.43;45.49;100914.19;7367354;19;20026;-61
2022/06/21 11:49:34;;;;;;;0.10;0.10;;;;;;;27.71;45.43;100920.59;7369308;19;20014;-61
2022/06/21 11:52:21;;;;;;;0.10;0.10;;;;;;;27.96;44.91;100926.38;7265146;19;2004445;-60
2022/06/21 11:55:24;;;;;;;0.10;0.10;;;;;;;28.12;43.83;100927.50;7366554;19;20006;-62
2022/06/21 11:58:02;;;;;;;0.00;0.00;;;;;;;28.13;43.32;100926.53;7264341;19;2004447;-61
2022/06/21 12:00:37;;;;;;;0.00;0.00;;;;;;;28.13;42.53;100931.03;7369331;19;20045;-61
2022/06/21 12:03:04;;;;;;;0.10;0.10;;;;;;;27.99;42.15;100929.66;7366669;19;20032;-61
2022/06/21 12:05:42;;;;;;;0.00;0.00;;;;;;;28.07;42.90;100927.06;7367894;19;20164;-56
2022/06/21 12:08:16;;;;;;;0.10;0.10;;;;;;;28.01;42.95;100933.03;7366182;19;20006;-62
2022/06/21 12:11:12;;;;;;;0.10;0.10;;;;;;;28.02;43.07;100923.97;7368230;19;20006;-62
2022/06/21 12:14:05;;;;;;;0.00;0.00;;;;;;;28.02;43.19;100932.03;7264263;19;2004209;-63
2022/06/21 12:16:39;;;;;;;0.10;0.10;;;;;;;28.03;43.27;100923.00;7264561;19;2004637;-61
2022/06/21 12:19:27;;;;;;;0.00;0.00;;;;;;;28.09;42.95;100926.97;7365448;19;20797;-58
2022/06/21 12:22:01;;;;;;;0.05;0.05;;;;;;;28.10;42.45;100920.59;7368226;19;20014;-63
2022/06/21 12:24:29;;;;;;;0.00;0.00;;;;;;;28.12;42.31;100930.19;7365537;19;20019;-59
2022/06/21 12:26:55;;;;;;;0.00;0.00;;;;;;;28.14;42.34;100928.22;7367815;19;20029;-62
2022/06/21 12:29:22;;;;;;;0.10;0.10;;;;;;;28.23;42.18;100931.03;7366773;19;20107;-63